createdAt,value
2022-12-31T00:01:31.177Z,14.00
2022-12-31T00:03:58.953Z,13.70
2022-12-31T00:06:49.725Z,14.30
2022-12-31T00:09:16.988Z,13.60
2022-12-31T00:11:44.631Z,14.40
2022-12-31T00:14:12.415Z,13.40
2022-12-31T00:17:09.302Z,14.40
2022-12-31T00:19:36.900Z,13.60
2022-12-31T00:22:04.699Z,12.90
2022-12-31T00:24:32.215Z,13.40
2022-12-31T00:27:04.290Z,15.60
2022-12-31T00:29:31.880Z,13.10
2022-12-31T00:31:59.052Z,14.30
2022-12-31T00:34:26.374Z,14.20
2022-12-31T00:37:11.248Z,14.30
2022-12-31T00:39:38.152Z,12.60
2022-12-31T00:42:05.800Z,14.20
2022-12-31T00:44:32.670Z,14.20
2022-12-31T00:46:59.647Z,14.20
2022-12-31T00:49:26.749Z,14.20
2022-12-31T00:51:54.104Z,13.60
2022-12-31T00:54:21.564Z,13.80
2022-12-31T00:56:54.629Z,14.20
2022-12-31T00:59:22.189Z,13.00
2022-12-31T01:01:50.519Z,14.20
2022-12-31T01:04:20.964Z,14.10
2022-12-31T01:06:50.626Z,14.20
2022-12-31T01:09:18.591Z,12.40
2022-12-31T01:11:46.148Z,14.20
2022-12-31T01:14:18.345Z,13.60
2022-12-31T01:22:16.380Z,14.30
2022-12-31T01:24:43.351Z,12.80
2022-12-31T01:27:10.434Z,14.30
2022-12-31T01:29:37.648Z,14.40
2022-12-31T01:32:05.409Z,14.40
2022-12-31T01:34:32.394Z,14.40
2022-12-31T01:36:59.692Z,14.40
2022-12-31T01:39:26.643Z,14.40
2022-12-31T01:41:53.431Z,14.40
2022-12-31T01:44:26.521Z,14.50
2022-12-31T01:46:58.314Z,14.40
2022-12-31T01:49:25.166Z,14.40
2022-12-31T01:52:02.765Z,14.40
2022-12-31T01:54:33.350Z,14.40
2022-12-31T01:57:01.786Z,14.30
2022-12-31T01:59:33.735Z,13.10
2022-12-31T02:02:02.706Z,12.80
2022-12-31T02:04:30.560Z,14.60
2022-12-31T02:07:07.051Z,12.60
2022-12-31T02:09:37.127Z,13.60
2022-12-31T02:12:05.752Z,12.90
2022-12-31T02:14:43.265Z,14.20
2022-12-31T02:17:20.074Z,12.80
2022-12-31T02:20:19.707Z,13.10
2022-12-31T02:36:28.624Z,14.30
2022-12-31T02:38:57.829Z,13.70
2022-12-31T02:41:44.198Z,14.60
2022-12-31T02:44:29.518Z,13.90
2022-12-31T02:47:09.455Z,12.90
2022-12-31T02:50:05.338Z,13.80
2022-12-31T02:52:54.939Z,14.40
2022-12-31T02:55:35.519Z,14.90
2022-12-31T02:58:22.151Z,14.30
2022-12-31T03:01:16.590Z,14.20
2022-12-31T03:06:29.677Z,14.20
2022-12-31T03:14:27.310Z,14.20
2022-12-31T03:16:54.664Z,14.10
2022-12-31T03:41:29.946Z,13.90
2022-12-31T03:43:57.188Z,13.10
2022-12-31T03:46:24.470Z,14.50
2022-12-31T03:48:51.743Z,13.90
2022-12-31T03:51:19.442Z,13.10
2022-12-31T03:53:50.455Z,12.40
2022-12-31T03:56:18.093Z,15.00
2022-12-31T03:58:45.227Z,13.70
2022-12-31T04:01:12.551Z,14.90
2022-12-31T04:03:39.944Z,13.80
2022-12-31T04:06:07.295Z,13.60
2022-12-31T04:08:34.202Z,15.60
2022-12-31T04:11:01.239Z,13.70
2022-12-31T04:13:30.254Z,13.80
2022-12-31T04:15:57.946Z,13.80
2022-12-31T04:23:56.031Z,13.80
2022-12-31T04:26:23.354Z,12.80
2022-12-31T04:34:11.268Z,13.80
2022-12-31T04:44:54.739Z,13.80
2022-12-31T04:47:23.979Z,13.60
2022-12-31T04:49:51.629Z,15.20
2022-12-31T04:52:18.980Z,15.00
2022-12-31T05:02:52.226Z,13.80
2022-12-31T05:05:19.507Z,12.40
2022-12-31T05:07:46.966Z,12.40
2022-12-31T05:10:14.526Z,12.90
2022-12-31T05:12:44.995Z,15.10
2022-12-31T05:15:12.110Z,11.90
2022-12-31T05:17:39.295Z,13.60
2022-12-31T05:20:07.268Z,14.20
2022-12-31T05:22:35.022Z,13.60
2022-12-31T05:25:02.591Z,13.50
2022-12-31T05:33:00.482Z,13.50
2022-12-31T05:35:28.168Z,11.90
2022-12-31T05:37:55.583Z,13.50
2022-12-31T05:40:22.841Z,13.50
2022-12-31T05:42:50.559Z,13.20
2022-12-31T05:45:18.663Z,13.40
2022-12-31T05:47:46.499Z,12.30
2022-12-31T05:50:18.351Z,13.30
2022-12-31T05:52:47.829Z,11.70
2022-12-31T05:55:15.629Z,12.10
2022-12-31T05:57:43.181Z,13.70
2022-12-31T06:00:11.744Z,11.80
2022-12-31T06:02:39.091Z,12.30
2022-12-31T06:05:06.821Z,14.40
2022-12-31T06:07:34.770Z,13.20
2022-12-31T06:10:02.505Z,13.10
2022-12-31T06:12:29.749Z,11.70
2022-12-31T06:14:57.227Z,11.90
2022-12-31T06:17:24.758Z,12.10
2022-12-31T06:19:52.333Z,13.40
2022-12-31T06:27:40.378Z,13.10
2022-12-31T06:30:08.662Z,11.80
2022-12-31T06:32:45.293Z,11.50
2022-12-31T06:35:13.175Z,11.20
2022-12-31T06:37:40.424Z,11.60
2022-12-31T06:40:08.689Z,12.90
2022-12-31T06:42:36.075Z,12.80
2022-12-31T06:45:03.446Z,11.10
2022-12-31T06:47:30.807Z,13.10
2022-12-31T06:49:58.710Z,11.70
2022-12-31T06:52:25.895Z,12.50
2022-12-31T06:57:41.429Z,12.30
2022-12-31T07:33:31.021Z,11.80
2022-12-31T07:36:25.384Z,12.00
2022-12-31T07:39:04.667Z,12.20
2022-12-31T07:41:40.474Z,12.30
2022-12-31T07:44:17.767Z,12.40
2022-12-31T07:46:55.930Z,12.60
2022-12-31T07:49:24.904Z,12.80
2022-12-31T07:51:52.569Z,12.90
2022-12-31T07:54:19.957Z,13.00
2022-12-31T07:56:47.771Z,13.20
2022-12-31T07:59:27.006Z,13.40
2022-12-31T08:02:05.395Z,13.50
2022-12-31T08:04:47.562Z,13.70
2022-12-31T08:07:22.669Z,13.90
2022-12-31T08:10:00.759Z,14.10
2022-12-31T08:12:34.425Z,14.20
2022-12-31T08:15:01.694Z,14.40
2022-12-31T08:17:28.776Z,14.70
2022-12-31T08:19:55.947Z,14.80
2022-12-31T08:22:58.122Z,15.00
2022-12-31T08:25:49.636Z,15.00
2022-12-31T08:28:25.304Z,15.20
2022-12-31T08:31:01.769Z,15.50
2022-12-31T08:34:16.035Z,15.70
2022-12-31T08:37:38.771Z,15.90
2022-12-31T08:40:14.427Z,16.00
2022-12-31T08:42:56.795Z,16.30
2022-12-31T08:45:30.202Z,16.40
2022-12-31T08:48:17.627Z,16.60
2022-12-31T08:50:45.064Z,16.90
2022-12-31T08:53:12.251Z,17.30
2022-12-31T08:55:41.675Z,17.60
2022-12-31T08:58:39.695Z,17.90
2022-12-31T09:01:08.562Z,18.20
2022-12-31T09:03:53.339Z,18.40
2022-12-31T09:06:33.974Z,18.60
2022-12-31T09:09:13.274Z,18.90
2022-12-31T09:12:18.192Z,19.20
2022-12-31T09:14:50.129Z,19.50
2022-12-31T09:17:23.188Z,19.60
2022-12-31T09:19:50.761Z,19.80
2022-12-31T09:22:17.839Z,19.80
2022-12-31T09:24:44.992Z,19.80
2022-12-31T09:27:27.571Z,20.40
2022-12-31T09:30:13.637Z,20.50
2022-12-31T09:33:02.717Z,20.80
2022-12-31T09:35:35.320Z,21.10
2022-12-31T09:38:12.264Z,21.50
2022-12-31T09:41:00.675Z,21.90
2022-12-31T09:43:36.552Z,22.40
2022-12-31T09:46:54.668Z,22.60
2022-12-31T09:49:40.242Z,22.90
2022-12-31T09:52:26.325Z,23.30
2022-12-31T09:55:14.786Z,23.70
2022-12-31T09:58:18.059Z,24.20
2022-12-31T10:00:58.154Z,24.50
2022-12-31T10:04:09.605Z,24.90
2022-12-31T10:06:51.428Z,25.30
2022-12-31T10:09:33.971Z,25.60
2022-12-31T10:12:24.619Z,25.90
2022-12-31T10:15:15.758Z,25.70
2022-12-31T10:17:57.615Z,25.70
2022-12-31T10:20:56.161Z,25.60
2022-12-31T10:23:41.173Z,25.50
2022-12-31T10:26:37.406Z,25.50
2022-12-31T10:29:10.861Z,25.70
2022-12-31T10:31:38.450Z,25.90
2022-12-31T10:34:25.226Z,26.50
2022-12-31T10:37:07.336Z,26.70
2022-12-31T10:39:44.702Z,27.10
2022-12-31T10:42:36.169Z,27.90
2022-12-31T10:45:24.234Z,28.30
2022-12-31T10:48:17.758Z,28.40
2022-12-31T10:51:30.594Z,28.60
2022-12-31T10:54:03.364Z,28.90
2022-12-31T10:57:07.384Z,29.30
2022-12-31T11:00:03.142Z,29.80
2022-12-31T11:02:57.450Z,30.00
2022-12-31T11:05:59.841Z,30.80
2022-12-31T11:08:48.456Z,31.80
2022-12-31T11:11:49.434Z,31.70
2022-12-31T11:14:40.948Z,31.80
2022-12-31T11:17:31.010Z,31.90
2022-12-31T11:20:20.746Z,32.30
2022-12-31T11:23:02.714Z,32.70
2022-12-31T11:25:52.324Z,33.10
2022-12-31T11:28:35.001Z,33.00
2022-12-31T11:31:18.591Z,33.30
2022-12-31T11:33:58.995Z,33.60
2022-12-31T11:36:44.277Z,32.70
2022-12-31T11:39:33.820Z,32.70
2022-12-31T11:42:43.224Z,33.10
2022-12-31T11:45:31.908Z,33.10
2022-12-31T11:48:30.120Z,32.70
2022-12-31T11:51:13.191Z,32.70
2022-12-31T11:54:07.448Z,33.30
2022-12-31T11:56:40.938Z,33.70
2022-12-31T11:59:18.637Z,34.30
2022-12-31T12:02:22.832Z,34.90
2022-12-31T12:04:55.052Z,35.40
2022-12-31T12:07:24.110Z,35.80
2022-12-31T12:09:54.592Z,36.20
2022-12-31T12:12:22.323Z,36.00
2022-12-31T12:14:54.752Z,35.80
2022-12-31T12:17:32.402Z,35.40
2022-12-31T12:20:15.133Z,34.90
2022-12-31T12:22:53.789Z,34.50
2022-12-31T12:25:24.375Z,34.10
2022-12-31T12:27:52.145Z,34.20
2022-12-31T12:30:24.486Z,34.80
2022-12-31T12:32:55.576Z,35.20
2022-12-31T12:35:31.320Z,35.30
2022-12-31T12:38:01.181Z,34.20
2022-12-31T12:40:33.877Z,34.10
2022-12-31T12:43:02.402Z,34.00
2022-12-31T12:45:42.081Z,33.30
2022-12-31T12:48:17.900Z,32.00
2022-12-31T12:50:48.191Z,30.90
2022-12-31T12:53:41.371Z,29.90
2022-12-31T12:56:24.679Z,28.80
2022-12-31T12:59:17.422Z,27.60
2022-12-31T13:01:59.986Z,26.40
2022-12-31T13:04:51.570Z,25.40
2022-12-31T13:07:48.757Z,24.70
2022-12-31T13:10:40.362Z,24.20
2022-12-31T13:13:45.091Z,23.80
2022-12-31T13:16:18.402Z,23.50
2022-12-31T13:18:51.343Z,23.30
2022-12-31T13:21:41.996Z,23.00
2022-12-31T13:24:22.084Z,22.50
2022-12-31T13:27:04.149Z,22.50
2022-12-31T13:29:34.847Z,22.30
2022-12-31T13:32:05.671Z,22.60
2022-12-31T13:34:38.881Z,23.70
2022-12-31T13:37:34.187Z,25.50
2022-12-31T13:40:27.536Z,27.00
2022-12-31T13:43:08.427Z,28.50
2022-12-31T13:45:43.483Z,29.40
2022-12-31T13:48:26.548Z,30.20
2022-12-31T13:51:04.449Z,31.00
2022-12-31T13:53:49.034Z,31.50
2022-12-31T13:56:24.926Z,31.60
2022-12-31T13:59:15.195Z,32.30
2022-12-31T14:02:13.322Z,32.70
2022-12-31T14:04:48.781Z,33.10
2022-12-31T14:07:21.628Z,33.10
2022-12-31T14:09:48.860Z,33.00
2022-12-31T14:12:21.665Z,32.70
2022-12-31T14:15:13.800Z,32.50
2022-12-31T14:18:02.181Z,32.20
2022-12-31T14:20:46.116Z,31.50
2022-12-31T14:23:18.402Z,31.00
2022-12-31T14:25:53.584Z,30.70
2022-12-31T14:28:27.824Z,30.50
2022-12-31T14:31:18.978Z,30.40
2022-12-31T14:33:57.943Z,30.50
2022-12-31T14:36:24.720Z,30.40
2022-12-31T14:39:19.825Z,30.20
2022-12-31T14:41:55.574Z,30.00
2022-12-31T14:44:46.464Z,29.80
2022-12-31T14:47:16.410Z,29.40
2022-12-31T14:50:03.554Z,29.00
2022-12-31T14:52:32.187Z,28.70
2022-12-31T14:55:17.387Z,28.20
2022-12-31T14:58:25.818Z,27.70
2022-12-31T15:00:39.547Z,27.20
2022-12-31T15:03:35.747Z,26.30
2022-12-31T15:06:28.085Z,25.20
2022-12-31T15:09:16.951Z,24.30
2022-12-31T15:12:05.243Z,23.40
2022-12-31T15:14:51.414Z,22.60
2022-12-31T15:17:36.806Z,21.90
2022-12-31T15:20:17.290Z,21.40
2022-12-31T15:22:46.170Z,20.90
2022-12-31T15:25:35.260Z,20.50
2022-12-31T15:28:08.823Z,20.10
2022-12-31T15:30:45.727Z,19.70
2022-12-31T15:33:33.680Z,19.40
2022-12-31T15:36:20.093Z,19.20
2022-12-31T15:38:48.087Z,18.90
2022-12-31T15:41:29.112Z,18.60
2022-12-31T15:44:08.910Z,18.30
2022-12-31T15:46:41.127Z,18.00
2022-12-31T15:49:16.217Z,17.80
2022-12-31T15:52:03.312Z,17.60
2022-12-31T15:54:41.104Z,17.50
2022-12-31T15:57:26.662Z,17.40
2022-12-31T16:00:05.116Z,17.30
2022-12-31T16:02:46.865Z,17.30
2022-12-31T16:05:23.502Z,17.60
2022-12-31T16:07:58.259Z,17.10
2022-12-31T16:10:29.298Z,17.00
2022-12-31T16:12:57.954Z,16.90
2022-12-31T16:15:30.877Z,16.90
2022-12-31T16:18:05.528Z,16.80
2022-12-31T16:20:34.742Z,16.70
2022-12-31T16:23:03.526Z,16.70
2022-12-31T16:25:33.108Z,16.60
2022-12-31T16:28:02.787Z,16.50
2022-12-31T16:30:36.566Z,16.40
2022-12-31T16:33:06.668Z,16.40
2022-12-31T16:35:36.639Z,16.30
2022-12-31T16:38:14.529Z,16.30
2022-12-31T16:41:03.092Z,16.30
2022-12-31T16:43:41.254Z,16.20
2022-12-31T16:46:31.127Z,16.10
2022-12-31T16:49:21.156Z,16.00
2022-12-31T16:51:49.777Z,15.80
2022-12-31T16:54:29.453Z,15.60
2022-12-31T16:56:59.075Z,15.60
2022-12-31T16:59:33.489Z,15.40
2022-12-31T17:02:12.625Z,15.30
2022-12-31T17:04:48.051Z,15.20
2022-12-31T17:07:30.678Z,15.10
2022-12-31T17:10:09.696Z,15.00
2022-12-31T17:13:25.362Z,15.00
2022-12-31T17:15:43.778Z,15.00
2022-12-31T17:18:22.926Z,14.90
2022-12-31T17:20:52.847Z,14.80
2022-12-31T17:23:26.786Z,14.70
2022-12-31T17:26:06.683Z,14.50
2022-12-31T17:28:46.058Z,14.50
2022-12-31T17:31:58.652Z,14.50
2022-12-31T17:34:40.031Z,14.50
2022-12-31T17:37:15.894Z,14.50
2022-12-31T17:40:17.024Z,14.50
2022-12-31T17:42:48.419Z,14.50
2022-12-31T17:45:25.360Z,14.50
2022-12-31T17:47:53.876Z,14.40
2022-12-31T17:50:23.936Z,14.40
2022-12-31T17:52:57.306Z,14.30
2022-12-31T17:55:24.374Z,14.30
2022-12-31T17:57:53.987Z,14.20
2022-12-31T18:00:26.879Z,14.20
2022-12-31T18:02:53.954Z,14.10
2022-12-31T18:05:23.817Z,14.20
2022-12-31T18:07:52.011Z,14.10
2022-12-31T18:10:23.549Z,14.10
2022-12-31T18:12:51.042Z,14.10
2022-12-31T18:15:24.792Z,14.10
2022-12-31T18:17:52.151Z,14.20
2022-12-31T18:20:21.105Z,14.10
2022-12-31T18:22:52.627Z,14.10
2022-12-31T18:25:24.936Z,14.00
2022-12-31T18:27:53.481Z,14.00
2022-12-31T18:30:20.746Z,13.80
2022-12-31T18:32:47.791Z,13.70
2022-12-31T18:38:13.731Z,13.60
2022-12-31T18:40:46.051Z,13.60
2022-12-31T18:43:18.004Z,13.60
2022-12-31T18:45:48.866Z,13.60
2022-12-31T18:48:16.526Z,13.70
2022-12-31T18:50:44.251Z,13.80
2022-12-31T18:53:19.449Z,13.80
2022-12-31T18:55:54.964Z,13.70
2022-12-31T18:58:22.603Z,13.70
2022-12-31T19:00:50.408Z,13.80
2022-12-31T19:03:24.511Z,13.80
2022-12-31T19:05:52.146Z,13.80
2022-12-31T19:08:21.049Z,13.80
2022-12-31T19:10:51.244Z,13.60
2022-12-31T19:13:23.647Z,13.50
2022-12-31T19:15:53.068Z,13.50
2022-12-31T19:18:20.236Z,13.50
2022-12-31T19:20:47.802Z,13.60
2022-12-31T19:23:20.423Z,13.70
2022-12-31T19:25:48.596Z,13.60
2022-12-31T19:28:18.638Z,13.50
2022-12-31T19:30:46.376Z,13.40
2022-12-31T19:33:13.746Z,13.40
2022-12-31T19:35:41.745Z,13.50
2022-12-31T19:38:22.831Z,13.50
2022-12-31T19:40:51.204Z,13.40
2022-12-31T19:43:20.850Z,13.40
2022-12-31T19:45:48.704Z,13.20
2022-12-31T19:48:21.685Z,13.20
2022-12-31T19:50:53.287Z,13.10
2022-12-31T19:53:26.969Z,13.10
2022-12-31T19:55:54.088Z,13.00
2022-12-31T19:58:25.689Z,12.80
2022-12-31T20:01:06.466Z,12.70
2022-12-31T20:03:33.646Z,12.70
2022-12-31T20:06:07.130Z,12.60
2022-12-31T20:08:35.925Z,12.60
2022-12-31T20:11:14.105Z,12.40
2022-12-31T20:13:42.433Z,12.30
2022-12-31T20:16:13.022Z,12.40
2022-12-31T20:18:42.223Z,12.40
2022-12-31T20:21:45.233Z,12.30
2022-12-31T20:24:12.510Z,12.20
2022-12-31T20:26:39.919Z,12.20
2022-12-31T20:29:06.827Z,12.30
2022-12-31T20:31:34.026Z,12.30
2022-12-31T20:34:01.662Z,12.20
2022-12-31T20:36:28.532Z,12.10
2022-12-31T20:38:55.625Z,12.00
2022-12-31T20:41:26.312Z,11.90
2022-12-31T20:43:53.733Z,11.90
2022-12-31T20:46:27.094Z,11.80
2022-12-31T20:48:59.265Z,11.70
2022-12-31T20:51:28.216Z,11.70
2022-12-31T20:54:15.367Z,11.70
2022-12-31T20:56:42.899Z,11.70
2022-12-31T20:59:13.356Z,11.60
2022-12-31T21:02:19.246Z,11.50
2022-12-31T21:04:27.545Z,11.40
2022-12-31T21:06:55.578Z,11.30
2022-12-31T21:09:22.561Z,11.20
2022-12-31T21:12:07.738Z,11.10
2022-12-31T21:14:37.419Z,10.90
2022-12-31T21:17:06.795Z,10.80
2022-12-31T21:19:33.757Z,10.80
2022-12-31T21:22:00.793Z,10.90
2022-12-31T21:24:28.130Z,11.00
2022-12-31T21:26:55.886Z,11.10
2022-12-31T21:29:29.991Z,11.20
2022-12-31T21:32:01.156Z,11.30
2022-12-31T21:34:33.265Z,11.30
2022-12-31T21:37:00.098Z,11.30
2022-12-31T21:39:27.112Z,11.30
2022-12-31T21:41:54.132Z,11.30
2022-12-31T21:44:23.681Z,11.30
2022-12-31T21:47:33.381Z,10.60
2022-12-31T21:49:42.240Z,11.30
2022-12-31T21:52:32.468Z,11.20
2022-12-31T21:55:20.269Z,11.20
2022-12-31T21:58:24.285Z,11.20
2022-12-31T22:00:54.875Z,11.30
2022-12-31T22:03:24.843Z,11.20
2022-12-31T22:06:00.000Z,11.10
2022-12-31T22:08:28.591Z,11.00
2022-12-31T22:11:01.521Z,10.90
2022-12-31T22:13:32.671Z,10.70
2022-12-31T22:16:05.807Z,10.80
2022-12-31T22:18:44.299Z,10.80
2022-12-31T22:21:18.204Z,10.90
2022-12-31T22:23:54.172Z,10.80
2022-12-31T22:26:26.605Z,10.90
2022-12-31T22:28:59.874Z,11.00
2022-12-31T22:31:32.555Z,10.90
2022-12-31T22:33:59.710Z,10.80
2022-12-31T22:36:35.954Z,10.80
2022-12-31T22:39:06.221Z,10.80
2022-12-31T22:41:34.921Z,10.80
2022-12-31T22:44:04.830Z,11.00
2022-12-31T22:46:33.179Z,11.10
2022-12-31T22:49:01.629Z,11.00
2022-12-31T22:51:54.878Z,11.00
2022-12-31T22:54:16.918Z,11.10
2022-12-31T22:56:44.161Z,11.00
2022-12-31T22:59:11.473Z,11.00
2022-12-31T23:01:38.512Z,11.00
2022-12-31T23:04:05.557Z,10.90
2022-12-31T23:06:33.399Z,10.90
2022-12-31T23:09:21.717Z,10.90
2022-12-31T23:11:48.576Z,10.80
2022-12-31T23:14:35.841Z,10.70
2022-12-31T23:17:30.867Z,10.80
2022-12-31T23:20:20.817Z,10.80
2022-12-31T23:23:06.673Z,10.60
2022-12-31T23:25:36.324Z,10.70
2022-12-31T23:28:04.136Z,10.70
2022-12-31T23:30:30.991Z,10.70
2022-12-31T23:32:57.924Z,10.60
2022-12-31T23:35:25.008Z,10.60
2022-12-31T23:37:51.963Z,10.50
2022-12-31T23:40:21.766Z,10.40
2022-12-31T23:42:50.216Z,10.30
2022-12-31T23:45:17.111Z,10.40
2022-12-31T23:47:44.018Z,10.40
2022-12-31T23:50:10.864Z,10.50
2022-12-31T23:52:37.723Z,10.50
2022-12-31T23:55:05.223Z,10.50
2022-12-31T23:57:32.030Z,10.40
2022-12-31T23:59:58.927Z,10.30
